Flight Track Log - Related Links

Times and Time Zones

All times are in EDT time to prevent confusion due to time zone crossing. See the CTL16 flight status page for this flight to view local times or setup timezone preferences in your user account.

Time Position Orientation Groundspeed Altitude Reporting Facility
EDT Latitude Longitude Course Direction KTS MPH feet Rate Location/Type
Wed 06:58:34 PM 40.0758 -83.0956 272° West 102 117 1,500  Level Indianapolis Center
Wed 06:59:11 PM 40.0764 -83.1147 272° West 108 124 2,000 794 Climbing Indianapolis Center
Wed 06:59:42 PM 40.0761 -83.1328 269° West 106 122 2,400 1,082 Climbing Indianapolis Center
Wed 07:00:12 PM 40.0736 -83.1581 263° West 105 121 3,100 1,161 Climbing Indianapolis Center
Wed 07:00:44 PM 40.0728 -83.1764 267° West 104 120 3,600 885 Climbing Indianapolis Center
Wed 07:01:13 PM 40.0647 -83.1925 237° Southwest 99 114 4,000 387 Climbing Indianapolis Center
Wed 07:01:46 PM 40.0550 -83.2097 234° Southwest 115 132 4,000  Level Indianapolis Center
Wed 07:02:13 PM 40.0456 -83.2283 236° Southwest 135 155 4,000  Level Indianapolis Center
Wed 07:02:48 PM 40.0336 -83.2506 235° Southwest 125 144 4,000  Level Indianapolis Center
Wed 07:03:08 PM 40.0239 -83.2667 232° Southwest 144 166 4,000  Level Indianapolis Center
Wed 07:03:50 PM 40.0100 -83.2942 237° Southwest 137 158 4,000  Level Indianapolis Center
Wed 07:04:09 PM 40.0019 -83.3103 237° Southwest 144 166 4,000  Level Indianapolis Center
Wed 07:04:53 PM 39.9875 -83.3361 234° Southwest 140 161 4,000  Level Indianapolis Center
Wed 07:05:10 PM 39.9781 -83.3536 235° Southwest 138 159 4,000  Level Indianapolis Center
Wed 07:05:55 PM 39.9669 -83.3778 239° Southwest 139 160 4,000  Level Indianapolis Center
Wed 07:06:11 PM 39.9583 -83.3947 236° Southwest 134 154 4,000  Level Indianapolis Center
Wed 07:06:57 PM 39.9422 -83.4267 237° Southwest 137 158 4,000  Level Indianapolis Center
Wed 07:07:18 PM 39.9361 -83.4411 241° Southwest 139 160 4,000 -97 Level Indianapolis Center
Wed 07:07:59 PM 39.9197 -83.4694 233° Southwest 140 161 3,900 -98 Descending Indianapolis Center
Wed 07:08:19 PM 39.9122 -83.4844 237° Southwest 142 163 3,900 98 Level Indianapolis Center
Wed 07:09:00 PM 39.8989 -83.5108 237° Southwest 139 160 4,000 100 Climbing Indianapolis Center
Wed 07:09:19 PM 39.8900 -83.5281 236° Southwest 140 161 4,000  Level Indianapolis Center
Wed 07:10:02 PM 39.8764 -83.5517 233° Southwest 140 161 4,000  Level Indianapolis Center
Wed 07:11:04 PM 39.8550 -83.5942 237° Southwest 140 161 4,000 -71 Level Indianapolis Center
Wed 07:11:27 PM 39.8439 -83.6147 235° Southwest 140 161 3,900 -97 Descending Indianapolis Center
Wed 07:12:06 PM 39.8289 -83.6417 234° Southwest 139 160 3,900 98 Level Indianapolis Center
Wed 07:12:28 PM 39.8222 -83.6553 237° Southwest 153 176 4,000 97 Climbing Indianapolis Center
Wed 07:13:08 PM 39.8067 -83.6828 234° Southwest 138 159 4,000 -98 Level Indianapolis Center
Wed 07:13:29 PM 39.7981 -83.6986 235° Southwest 126 145 3,900 -97 Descending Indianapolis Center
Wed 07:14:10 PM 39.7856 -83.7225 236° Southwest 136 157 3,900  Level Indianapolis Center
Wed 07:14:30 PM 39.7783 -83.7369 237° Southwest 130 150 3,900  Level Indianapolis Center
Wed 07:15:12 PM 39.7650 -83.7617 235° Southwest 132 152 3,900  Level Indianapolis Center
Wed 07:15:37 PM 39.7564 -83.7775 235° Southwest 130 150 3,900  Level Indianapolis Center
Wed 07:16:14 PM 39.7436 -83.8000 234° Southwest 131 151 3,900 98 Level Indianapolis Center
Wed 07:16:38 PM 39.7344 -83.8181 237° Southwest 133 153 4,000  Climbing Indianapolis Center
Wed 07:17:16 PM 39.7219 -83.8414 235° Southwest 134 154 3,900  Descending Indianapolis Center
Wed 07:17:45 PM 39.7100 -83.8639 235° Southwest 136 157 4,000 97 Climbing Indianapolis Center
Wed 07:18:18 PM 39.7000 -83.8819 234° Southwest 136 157 4,000  Level Indianapolis Center
Wed 07:18:46 PM 39.6881 -83.9072 238° Southwest 140 161 4,000  Level Indianapolis Center
Wed 07:19:20 PM 39.6794 -83.9231 235° Southwest 135 155 4,000 -98 Level Indianapolis Center
Wed 07:19:47 PM 39.6681 -83.9481 239° Southwest 134 154 3,900 -98 Descending Indianapolis Center
Wed 07:20:21 PM 39.6550 -83.9725 235° Southwest 136 157 3,900 111 Level Indianapolis Center
Wed 07:20:41 PM 39.6483 -83.9861 238° Southwest 135 155 4,000 97 Climbing Indianapolis Center
Wed 07:21:23 PM 39.6347 -84.0131 237° Southwest 135 155 4,000  Level Indianapolis Center
Wed 07:21:42 PM 39.6283 -84.0269 239° Southwest 135 155 4,000  Level Indianapolis Center
Wed 07:22:25 PM 39.6131 -84.0550 235° Southwest 137 158 4,000 -57 Level Indianapolis Center
Wed 07:23:27 PM 39.5906 -84.0942 233° Southwest 136 157 3,900  Descending Indianapolis Center
Wed 07:24:29 PM 39.5681 -84.1336 234° Southwest 135 155 4,000 48 Climbing Indianapolis Center
Wed 07:25:31 PM 39.5453 -84.1744 234° Southwest 136 157 4,000 -48 Level Indianapolis Center
Wed 07:26:33 PM 39.5242 -84.2164 237° Southwest 138 159 3,900 -244 Descending Indianapolis Center
Wed 07:27:34 PM 39.5039 -84.2578 238° Southwest 139 160 3,500 -393 Descending Indianapolis Center
Wed 07:29:00 PM 39.4712 -84.3048 228° Southwest  Level FlightAware Approximate
Wed 07:36:00 PM 39.3500 -84.5167 229° Southwest  Level FlightAware Approximate
Wed 07:37:00 PM 39.3638 -84.5219 229° Southwest  Level Estimated
Wed 07:38:00 PM 39.3638 -84.5219 229° Southwest  Level Estimated
Wed 07:39:00 PM 39.3638 -84.5219 229° Southwest  Level Estimated
Wed 07:40:00 PM 39.3638 -84.5219 229° Southwest  Level Estimated
Wed 07:41:00 PM 39.3638 -84.5219 229° Southwest  Level Estimated
Wed 07:42:00 PM 39.3638 -84.5219 229° Southwest  Level Estimated
Wed 07:43:00 PM 39.3638 -84.5219 229° Southwest  Level Estimated

Login

Don't have an account? Register now (free) for customized features, flight alerts, and more!